Terminal Aerodrome Forecast
Issued by NWS

Home | Current Version | Previous Version | Graphics & Text | Print | Product List | Glossary On
Versions: 1 2 3 4 5 6 7 8 9 10 11 12 13 14 15 16 17 18 19 20
074
FTUS43 KMPX 231138
TAFAXN
TAF
KAXN 231138Z 2312/2412 33006KT P6SM OVC015
      TEMPO 2312/2313 3SM -SHSN SCT015 OVC060
     FM231600 30011KT P6SM OVC020
      TEMPO 2316/2320 SCT020
     FM232000 30010KT P6SM SCT030
     FM240000 28004KT P6SM SKC=

USA.gov is the U.S. government's official web portal to all federal, state and local government web resources and services.